Time;durP1;ratioP1;P1;durP2;ratioP2;P2;SDS_P1;SDS_P2;PMS_P1;PMS_P2;Temp;Humidity;BMP_temperature;BMP_pressure;BME280_temperature;BME280_humidity;BME280_pressure;Samples;Min_cycle;Max_cycle;Signal;HPM_P1;HPM_P2
2022/03/03 00:01:21;;;;;;;29.60;22.53;;;-0.40;99.90;;;;;;4982481;28;20492;-75
2022/03/03 00:03:48;;;;;;;29.47;23.00;;;-0.40;99.90;;;;;;4983876;28;20448;-75
2022/03/03 00:06:14;;;;;;;34.90;22.77;;;-0.40;99.90;;;;;;5002341;28;20507;-75
2022/03/03 00:08:41;;;;;;;29.10;22.63;;;-0.50;99.90;;;;;;5000867;28;20436;-76
2022/03/03 00:11:08;;;;;;;32.27;22.50;;;-0.50;99.90;;;;;;4984271;28;21036;-76
2022/03/03 00:13:35;;;;;;;32.87;22.70;;;-0.60;99.90;;;;;;5004311;28;20823;-75
2022/03/03 00:16:05;;;;;;;31.07;22.53;;;-0.60;99.90;;;;;;5001606;28;20444;-75
2022/03/03 00:18:34;;;;;;;36.77;24.47;;;-0.60;99.90;;;;;;4980404;28;20444;-75
2022/03/03 00:21:01;;;;;;;40.87;25.10;;;-0.60;99.90;;;;;;4996601;28;20981;-75
2022/03/03 00:23:28;;;;;;;32.07;24.30;;;-0.70;99.90;;;;;;4993170;28;20440;-76
2022/03/03 00:25:55;;;;;;;36.27;24.83;;;-0.70;99.90;;;;;;5001254;28;20444;-76
2022/03/03 00:28:21;;;;;;;43.17;26.63;;;-0.80;99.90;;;;;;5001090;28;20861;-75
2022/03/03 00:30:48;;;;;;;31.30;24.27;;;-0.80;99.90;;;;;;4983570;28;20483;-75
2022/03/03 00:33:17;;;;;;;33.77;24.10;;;-0.80;99.90;;;;;;5002696;28;20523;-75
2022/03/03 00:35:43;;;;;;;35.43;23.53;;;-0.70;99.90;;;;;;4982980;28;21015;-76
2022/03/03 00:38:11;;;;;;;31.83;22.47;;;-0.80;99.90;;;;;;4997283;28;20436;-76
2022/03/03 00:40:38;;;;;;;31.73;22.73;;;-0.90;99.90;;;;;;4999734;28;20439;-76
2022/03/03 00:43:06;;;;;;;34.37;25.00;;;-0.90;99.90;;;;;;5001061;28;20492;-76
2022/03/03 00:45:33;;;;;;;36.63;25.57;;;-0.90;99.90;;;;;;5002827;28;20446;-75
2022/03/03 00:48:01;;;;;;;33.80;24.57;;;-0.90;99.90;;;;;;5000193;28;20445;-75
2022/03/03 00:50:29;;;;;;;34.47;24.23;;;-0.80;99.90;;;;;;5000131;28;20432;-76
2022/03/03 00:52:56;;;;;;;33.30;24.30;;;-0.80;99.90;;;;;;5000292;28;20976;-76
2022/03/03 00:55:23;;;;;;;34.90;24.10;;;-0.80;99.90;;;;;;4983729;28;20465;-76
2022/03/03 00:57:50;;;;;;;31.33;24.47;;;-0.80;99.90;;;;;;5000461;28;20467;-76
2022/03/03 01:00:18;;;;;;;29.83;23.73;;;-0.80;99.90;;;;;;4997226;28;20437;-75
2022/03/03 01:02:45;;;;;;;32.57;23.70;;;-0.80;99.90;;;;;;5004310;28;20477;-77
2022/03/03 01:05:12;;;;;;;36.60;25.07;;;-0.80;99.90;;;;;;5007058;28;20452;-76
2022/03/03 01:07:41;;;;;;;37.57;24.13;;;-0.80;99.90;;;;;;4981411;28;20447;-77
2022/03/03 01:10:09;;;;;;;31.23;23.27;;;-0.90;99.90;;;;;;4994350;28;20934;-77
2022/03/03 01:12:36;;;;;;;33.03;24.23;;;-0.90;99.90;;;;;;4997804;28;20490;-77
2022/03/03 01:15:04;;;;;;;32.23;23.27;;;-0.90;99.90;;;;;;5001768;28;20443;-77
2022/03/03 01:17:31;;;;;;;29.20;22.70;;;-1.00;99.90;;;;;;4982820;28;20896;-77
2022/03/03 01:19:58;;;;;;;32.63;22.73;;;-1.00;99.90;;;;;;4984831;28;20459;-76
2022/03/03 01:22:25;;;;;;;28.93;22.63;;;-1.10;99.90;;;;;;4997378;28;20453;-76
2022/03/03 01:24:53;;;;;;;33.53;24.13;;;-1.10;99.90;;;;;;4980559;28;20459;-78
2022/03/03 01:27:20;;;;;;;38.67;24.20;;;-1.10;99.90;;;;;;5002655;28;20432;-77
2022/03/03 01:29:47;;;;;;;33.70;23.00;;;-1.10;99.90;;;;;;5001195;28;20448;-76
2022/03/03 01:32:14;;;;;;;31.50;23.33;;;-1.10;99.90;;;;;;4983538;28;20515;-76
2022/03/03 01:34:41;;;;;;;28.73;22.50;;;-1.10;99.90;;;;;;5000879;28;20437;-76
2022/03/03 01:37:08;;;;;;;44.97;24.30;;;-1.20;99.90;;;;;;5000992;28;20448;-76
2022/03/03 01:39:35;;;;;;;33.37;23.23;;;-1.20;99.90;;;;;;4983626;28;20457;-75
2022/03/03 01:42:03;;;;;;;30.67;23.27;;;-1.20;99.90;;;;;;5003393;28;20878;-76
2022/03/03 01:44:30;;;;;;;34.37;23.80;;;-1.20;99.90;;;;;;4991017;28;20440;-78
2022/03/03 01:47:00;;;;;;;30.37;23.27;;;-1.20;99.90;;;;;;4996996;28;20472;-77
2022/03/03 01:49:27;;;;;;;30.30;22.20;;;-1.20;99.90;;;;;;4986485;28;20463;-77
2022/03/03 01:51:54;;;;;;;31.63;23.17;;;-1.30;99.90;;;;;;4982300;28;20910;-77
2022/03/03 01:54:21;;;;;;;29.80;21.90;;;-1.30;99.90;;;;;;5002270;28;20432;-76
2022/03/03 01:56:48;;;;;;;26.90;20.40;;;-1.30;99.90;;;;;;4999266;28;20496;-76
2022/03/03 01:59:16;;;;;;;31.33;22.13;;;-1.30;99.90;;;;;;4984117;28;20522;-76
2022/03/03 02:01:43;;;;;;;31.93;21.93;;;-1.20;99.90;;;;;;5000406;28;20571;-76
2022/03/03 02:04:10;;;;;;;33.37;23.37;;;-1.20;99.90;;;;;;4997363;28;20437;-77
2022/03/03 02:06:38;;;;;;;33.37;23.47;;;-1.20;99.90;;;;;;4998772;28;20776;-76
2022/03/03 02:09:05;;;;;;;29.73;22.10;;;-1.30;99.90;;;;;;5000040;28;20433;-77
2022/03/03 02:11:32;;;;;;;30.67;23.10;;;-1.30;99.90;;;;;;4985256;28;20479;-76
2022/03/03 02:13:59;;;;;;;30.63;22.27;;;-1.30;99.90;;;;;;4999943;28;20467;-76
2022/03/03 02:16:28;;;;;;;31.93;23.40;;;-1.40;99.90;;;;;;5003205;28;20491;-76
2022/03/03 02:18:54;;;;;;;32.00;22.93;;;-1.30;99.90;;;;;;5004122;28;20443;-76
2022/03/03 02:21:23;;;;;;;33.53;23.80;;;-1.30;99.90;;;;;;4998650;28;20456;-76
2022/03/03 02:23:51;;;;;;;31.83;21.73;;;-1.40;99.90;;;;;;5006795;28;20944;-76
2022/03/03 02:26:20;;;;;;;31.07;21.83;;;-1.40;99.90;;;;;;4981345;28;20452;-76
2022/03/03 02:28:48;;;;;;;31.03;21.93;;;-1.50;99.90;;;;;;5006423;28;20437;-76
2022/03/03 02:31:15;;;;;;;34.73;23.30;;;-1.50;99.90;;;;;;5004799;28;20484;-76
2022/03/03 02:33:42;;;;;;;33.70;23.27;;;-1.50;99.90;;;;;;4999810;28;20440;-76
2022/03/03 02:36:17;;;;;;;29.30;22.20;;;-1.50;99.90;;;;;;5012043;28;20489;-76
2022/03/03 02:38:45;;;;;;;29.57;22.73;;;-1.60;99.90;;;;;;4985572;28;20451;-76
2022/03/03 02:41:12;;;;;;;28.80;21.63;;;-1.50;99.90;;;;;;4986959;28;20476;-76
2022/03/03 02:43:39;;;;;;;27.10;21.80;;;-1.50;99.90;;;;;;4985568;28;20445;-76
2022/03/03 02:46:06;;;;;;;30.30;22.70;;;-1.40;99.90;;;;;;4985437;28;20875;-76
2022/03/03 02:48:33;;;;;;;28.73;20.97;;;-1.40;99.90;;;;;;5002400;28;20440;-76
2022/03/03 02:51:00;;;;;;;32.90;23.13;;;-1.40;99.90;;;;;;5002491;28;20467;-76
2022/03/03 02:53:27;;;;;;;27.03;20.57;;;-1.40;99.90;;;;;;4999839;28;21027;-77
2022/03/03 02:55:55;;;;;;;28.77;20.93;;;-1.40;99.90;;;;;;5000524;28;20440;-75
2022/03/03 02:58:21;;;;;;;26.10;20.30;;;-1.40;99.90;;;;;;5005738;28;20436;-77
2022/03/03 03:00:49;;;;;;;26.37;20.80;;;-1.50;99.90;;;;;;4986507;28;20464;-77
2022/03/03 03:03:17;;;;;;;27.43;20.60;;;-1.50;99.90;;;;;;5006009;28;20433;-76
2022/03/03 03:05:44;;;;;;;29.43;22.43;;;-1.60;99.90;;;;;;5003645;28;20453;-78
2022/03/03 03:08:11;;;;;;;31.73;23.10;;;-1.60;99.90;;;;;;5003437;28;20443;-78
2022/03/03 03:10:38;;;;;;;33.27;22.60;;;-1.60;99.90;;;;;;5000432;28;20936;-77
2022/03/03 03:13:08;;;;;;;32.63;23.63;;;-1.60;99.90;;;;;;5006034;28;20490;-77
2022/03/03 03:15:35;;;;;;;30.10;21.63;;;-1.60;99.90;;;;;;5002143;28;20443;-78
2022/03/03 03:18:09;;;;;;;32.77;23.20;;;-1.60;99.90;;;;;;4999417;28;20441;-76
2022/03/03 03:20:36;;;;;;;33.60;22.27;;;-1.60;99.90;;;;;;4995577;28;20560;-75
2022/03/03 03:23:04;;;;;;;30.10;22.43;;;-1.70;99.90;;;;;;4997960;28;20820;-75
2022/03/03 03:25:30;;;;;;;30.70;22.60;;;-1.80;99.90;;;;;;5004896;28;20498;-75
2022/03/03 03:27:57;;;;;;;30.43;22.47;;;-1.90;99.90;;;;;;4983045;28;20455;-76
2022/03/03 03:30:26;;;;;;;33.60;24.70;;;-1.90;99.90;;;;;;5004078;28;20440;-75
2022/03/03 03:32:52;;;;;;;31.00;22.30;;;-1.90;99.90;;;;;;5000616;28;20484;-76
2022/03/03 03:35:19;;;;;;;34.73;24.13;;;-1.90;99.90;;;;;;5003801;28;20440;-79
2022/03/03 03:37:46;;;;;;;32.70;23.20;;;-1.90;99.90;;;;;;5003286;28;20507;-79
2022/03/03 03:40:13;;;;;;;33.37;23.80;;;-2.00;99.90;;;;;;5001838;28;20456;-81
2022/03/03 03:42:40;;;;;;;37.73;23.23;;;-2.00;99.90;;;;;;5010147;28;20483;-82
2022/03/03 03:45:09;;;;;;;29.63;23.23;;;-2.00;99.90;;;;;;5015449;28;20964;-79
2022/03/03 03:47:37;;;;;;;29.07;22.70;;;-2.00;99.90;;;;;;5012351;28;20459;-81
2022/03/03 03:50:08;;;;;;;30.80;22.90;;;-2.00;99.90;;;;;;5013520;28;20442;-79
2022/03/03 03:52:35;;;;;;;30.40;24.30;;;-2.00;99.90;;;;;;5008984;28;20909;-80
2022/03/03 03:55:02;;;;;;;28.10;21.97;;;-2.00;99.90;;;;;;5003756;28;20491;-81
2022/03/03 03:57:29;;;;;;;29.63;23.20;;;-2.10;99.90;;;;;;5006073;28;20452;-81
2022/03/03 03:59:56;;;;;;;34.47;24.30;;;-2.00;99.90;;;;;;5006903;28;20440;-81
2022/03/03 04:02:23;;;;;;;29.20;23.77;;;-2.00;99.90;;;;;;4997906;28;20472;-80
2022/03/03 04:04:51;;;;;;;28.80;22.27;;;-2.00;99.90;;;;;;5012682;28;20479;-80
2022/03/03 04:07:18;;;;;;;35.63;23.97;;;-2.00;99.90;;;;;;5005879;28;20510;-80
2022/03/03 04:09:45;;;;;;;39.17;24.70;;;-2.00;99.90;;;;;;4988333;28;20816;-80
2022/03/03 04:12:12;;;;;;;35.77;24.07;;;-2.00;99.90;;;;;;5012244;23;20491;-77
2022/03/03 04:14:39;;;;;;;29.60;21.67;;;-2.00;99.90;;;;;;4997562;28;20510;-78
2022/03/03 04:17:06;;;;;;;28.37;21.63;;;-2.00;99.90;;;;;;4998267;28;20459;-75
2022/03/03 04:19:33;;;;;;;31.27;22.57;;;-2.10;99.90;;;;;;5009442;28;20494;-76
2022/03/03 04:22:01;;;;;;;31.27;22.57;;;-2.10;99.90;;;;;;4994114;28;20879;-77
2022/03/03 04:24:28;;;;;;;30.77;22.50;;;-2.10;99.90;;;;;;4987373;28;20448;-80
2022/03/03 04:26:56;;;;;;;32.30;22.33;;;-2.10;99.90;;;;;;5004182;28;20436;-77
2022/03/03 04:29:23;;;;;;;30.00;21.60;;;-2.20;99.90;;;;;;5006434;28;20451;-77
2022/03/03 04:31:53;;;;;;;30.00;23.90;;;-2.20;99.90;;;;;;4986920;28;20652;-77
2022/03/03 04:34:20;;;;;;;30.67;23.13;;;-2.20;99.90;;;;;;5006027;28;20456;-77
2022/03/03 04:36:47;;;;;;;30.50;22.50;;;-2.20;99.90;;;;;;4990259;28;20528;-77
2022/03/03 04:39:16;;;;;;;30.20;23.57;;;-2.20;99.90;;;;;;4993358;28;20447;-77
2022/03/03 04:41:43;;;;;;;28.83;22.33;;;-2.20;99.90;;;;;;4994361;28;20537;-77
2022/03/03 04:44:09;;;;;;;35.03;24.20;;;-2.20;99.90;;;;;;5012448;28;20498;-77
2022/03/03 04:46:36;;;;;;;35.17;23.17;;;-2.30;99.90;;;;;;5003498;28;20443;-77
2022/03/03 04:49:03;;;;;;;34.97;23.93;;;-2.20;99.90;;;;;;5004896;28;20440;-77
2022/03/03 04:51:30;;;;;;;33.33;23.57;;;-2.20;99.90;;;;;;5012788;28;20460;-77
2022/03/03 04:53:57;;;;;;;26.87;22.67;;;-2.30;99.90;;;;;;5005438;28;20818;-76
2022/03/03 04:56:26;;;;;;;32.30;23.37;;;-2.30;99.90;;;;;;5003577;28;20494;-78
2022/03/03 04:58:52;;;;;;;27.50;21.10;;;-2.30;99.90;;;;;;5012788;28;20431;-77
2022/03/03 05:01:19;;;;;;;29.07;22.93;;;-2.30;99.90;;;;;;5012485;28;20459;-77
2022/03/03 05:03:46;;;;;;;28.13;22.17;;;-2.40;99.90;;;;;;5004470;28;20850;-77
2022/03/03 05:06:13;;;;;;;27.40;21.23;;;-2.30;99.90;;;;;;5004656;28;20436;-77
2022/03/03 05:08:40;;;;;;;30.67;23.17;;;-2.30;99.90;;;;;;4990402;28;20814;-77
2022/03/03 05:11:08;;;;;;;37.57;24.27;;;-2.30;99.90;;;;;;4989273;28;20956;-77
2022/03/03 05:13:37;;;;;;;34.37;23.23;;;-2.20;99.90;;;;;;5012660;28;20439;-77
2022/03/03 05:16:04;;;;;;;29.43;22.70;;;-2.30;99.90;;;;;;5004689;28;20436;-77
2022/03/03 05:18:31;;;;;;;35.17;23.67;;;-2.30;99.90;;;;;;4986875;28;20459;-77
2022/03/03 05:20:58;;;;;;;33.57;22.83;;;-2.30;99.90;;;;;;4986975;28;20526;-77
2022/03/03 05:23:25;;;;;;;34.33;23.73;;;-2.30;99.90;;;;;;4987523;28;20484;-77
2022/03/03 05:25:52;;;;;;;30.57;22.93;;;-2.40;99.90;;;;;;5005885;28;20941;-77
2022/03/03 05:28:19;;;;;;;34.23;24.73;;;-2.40;99.90;;;;;;4984992;28;20496;-77
2022/03/03 05:30:47;;;;;;;38.77;25.83;;;-2.40;99.90;;;;;;5006296;28;20436;-77
2022/03/03 05:33:14;;;;;;;35.90;25.27;;;-2.40;99.90;;;;;;5010290;28;20746;-77
2022/03/03 05:35:41;;;;;;;31.83;24.17;;;-2.40;99.90;;;;;;4990271;28;20514;-77
2022/03/03 05:38:09;;;;;;;33.60;24.27;;;-2.40;99.90;;;;;;5008018;28;20526;-77
2022/03/03 05:40:36;;;;;;;29.87;23.37;;;-2.50;99.90;;;;;;5007764;28;20484;-77
2022/03/03 05:43:03;;;;;;;29.10;22.17;;;-2.60;99.90;;;;;;4986337;28;21067;-77
2022/03/03 05:45:33;;;;;;;32.43;23.50;;;-2.60;99.90;;;;;;4986354;28;20454;-77
2022/03/03 05:48:02;;;;;;;35.10;23.53;;;-2.70;99.90;;;;;;5003354;28;20448;-77
2022/03/03 05:50:29;;;;;;;32.40;25.27;;;-2.70;99.90;;;;;;4978499;28;20447;-77
2022/03/03 05:52:59;;;;;;;36.93;24.70;;;-2.70;99.90;;;;;;4991091;28;20465;-77
2022/03/03 05:55:27;;;;;;;32.97;24.10;;;-2.60;99.90;;;;;;4997774;28;20444;-77
2022/03/03 05:57:57;;;;;;;35.70;26.13;;;-2.60;99.90;;;;;;4997615;28;20450;-77
2022/03/03 06:00:28;;;;;;;30.13;23.80;;;-2.50;99.90;;;;;;5015517;28;20443;-77
2022/03/03 06:02:56;;;;;;;39.80;24.80;;;-2.40;99.90;;;;;;5007804;28;20538;-77
2022/03/03 06:05:27;;;;;;;30.23;23.60;;;-2.30;99.90;;;;;;5007371;28;20438;-77
2022/03/03 06:07:58;;;;;;;31.73;23.27;;;-2.30;99.90;;;;;;4992995;28;20447;-77
2022/03/03 06:10:26;;;;;;;32.47;24.27;;;-2.30;99.90;;;;;;5007555;28;20446;-78
2022/03/03 06:13:03;;;;;;;32.23;23.70;;;-2.20;99.90;;;;;;5008951;28;20456;-77
2022/03/03 06:15:30;;;;;;;32.23;23.97;;;-2.20;99.90;;;;;;5004027;28;20439;-77
2022/03/03 06:18:00;;;;;;;29.10;22.63;;;-2.20;99.90;;;;;;4990044;28;20448;-77
2022/03/03 06:20:29;;;;;;;30.40;23.97;;;-2.20;99.90;;;;;;5012003;28;20499;-77
2022/03/03 06:22:56;;;;;;;34.07;23.50;;;-2.10;99.90;;;;;;5003964;28;20488;-77
2022/03/03 06:25:22;;;;;;;37.80;24.47;;;-2.10;99.90;;;;;;5013071;28;20955;-77
2022/03/03 06:27:50;;;;;;;35.47;25.40;;;-2.00;99.90;;;;;;5008462;28;20890;-78
2022/03/03 06:30:16;;;;;;;32.53;23.63;;;-1.90;99.90;;;;;;5008029;28;20436;-77
2022/03/03 06:32:43;;;;;;;35.33;24.40;;;-1.90;99.90;;;;;;4991595;28;20463;-78
2022/03/03 06:35:10;;;;;;;29.20;22.80;;;-1.80;99.90;;;;;;5000960;28;20440;-77
2022/03/03 06:37:38;;;;;;;29.10;22.10;;;-1.70;99.90;;;;;;4996577;28;20521;-78
2022/03/03 06:40:06;;;;;;;31.00;23.40;;;-1.70;99.90;;;;;;4990994;28;20452;-78
2022/03/03 06:42:33;;;;;;;31.23;23.23;;;-1.50;99.90;;;;;;5013075;28;20479;-78
2022/03/03 06:45:00;;;;;;;33.07;24.17;;;-1.20;99.90;;;;;;5014914;28;20498;-78
2022/03/03 06:47:27;;;;;;;30.43;22.37;;;-0.90;99.90;;;;;;4985402;28;20527;-78
2022/03/03 06:49:53;;;;;;;34.77;24.13;;;-0.50;99.90;;;;;;5010302;28;20439;-77
2022/03/03 06:52:26;;;;;;;38.10;22.50;;;-0.30;99.90;;;;;;4988747;28;20467;-77
2022/03/03 06:54:55;;;;;;;29.87;22.37;;;0.00;99.90;;;;;;4989491;28;20542;-77
2022/03/03 06:57:23;;;;;;;29.73;23.33;;;0.40;99.90;;;;;;5006107;28;20507;-78
2022/03/03 06:59:51;;;;;;;33.47;24.43;;;0.50;99.90;;;;;;4991080;28;20456;-78
2022/03/03 07:02:20;;;;;;;29.07;23.27;;;0.80;99.90;;;;;;5004975;28;20552;-78
2022/03/03 07:04:48;;;;;;;34.10;23.93;;;1.20;99.90;;;;;;4991709;28;20489;-78
2022/03/03 07:07:15;;;;;;;31.20;24.47;;;1.40;99.90;;;;;;5010722;28;20452;-78
2022/03/03 07:09:43;;;;;;;31.47;23.77;;;1.50;99.90;;;;;;5003113;28;20927;-78
2022/03/03 07:12:13;;;;;;;27.93;22.33;;;1.60;99.90;;;;;;4993315;28;20480;-78
2022/03/03 07:14:40;;;;;;;27.20;22.83;;;1.90;99.90;;;;;;5008466;28;20442;-78
2022/03/03 07:17:13;;;;;;;28.80;23.37;;;2.00;99.90;;;;;;4989000;28;20525;-78
2022/03/03 07:19:50;;;;;;;29.93;23.33;;;2.30;99.90;;;;;;5007327;28;20463;-79
2022/03/03 07:22:20;;;;;;;28.43;23.43;;;2.40;99.90;;;;;;4988601;28;20471;-78
2022/03/03 07:24:49;;;;;;;30.30;22.93;;;2.70;99.90;;;;;;5006161;28;20431;-79
2022/03/03 07:27:23;;;;;;;28.70;23.30;;;2.90;99.90;;;;;;5013561;28;20443;-78
2022/03/03 07:29:56;;;;;;;27.37;22.87;;;3.00;99.90;;;;;;4996493;28;20444;-78
2022/03/03 07:32:32;;;;;;;28.97;22.53;;;3.10;99.90;;;;;;5006327;28;20252;-78
2022/03/03 07:35:02;;;;;;;24.60;20.40;;;3.00;99.90;;;;;;5006204;28;20200;-77
2022/03/03 07:37:34;;;;;;;25.73;21.47;;;2.90;99.90;;;;;;5003884;28;20192;-77
2022/03/03 07:40:06;;;;;;;28.97;22.73;;;2.90;99.90;;;;;;5006092;28;20197;-77
2022/03/03 07:42:35;;;;;;;30.63;23.77;;;2.90;99.90;;;;;;5003199;28;20216;-79
2022/03/03 07:45:03;;;;;;;26.50;22.60;;;3.00;99.90;;;;;;5000276;28;20209;-80
2022/03/03 07:47:30;;;;;;;25.67;22.63;;;3.30;99.90;;;;;;5001571;28;20193;-79
2022/03/03 07:49:58;;;;;;;31.00;23.27;;;3.60;99.90;;;;;;4988668;28;20229;-77
2022/03/03 07:52:26;;;;;;;29.07;24.47;;;3.90;99.90;;;;;;5010660;28;20272;-79
2022/03/03 07:54:53;;;;;;;27.00;22.53;;;4.40;99.90;;;;;;5009959;28;20200;-78
2022/03/03 07:57:23;;;;;;;28.67;21.53;;;4.70;99.90;;;;;;5011121;28;20259;-79
2022/03/03 07:59:58;;;;;;;24.40;17.50;;;5.00;99.90;;;;;;5009208;28;20188;-78
2022/03/03 08:02:25;;;;;;;24.80;18.43;;;5.50;99.90;;;;;;5005531;28;20808;-79
2022/03/03 08:04:53;;;;;;;23.67;19.13;;;5.70;99.90;;;;;;4988339;28;20216;-78
2022/03/03 08:07:21;;;;;;;22.73;16.93;;;6.00;99.90;;;;;;5005044;28;20579;-78
2022/03/03 08:09:49;;;;;;;23.77;19.83;;;6.20;99.90;;;;;;5007571;28;20198;-79
2022/03/03 08:12:17;;;;;;;23.47;18.33;;;6.30;99.90;;;;;;5004179;28;20316;-78
2022/03/03 08:14:46;;;;;;;24.53;18.00;;;6.50;99.90;;;;;;5007452;28;20203;-78
2022/03/03 08:17:15;;;;;;;23.47;16.27;;;6.60;99.90;;;;;;4991734;28;20233;-79
2022/03/03 08:19:44;;;;;;;23.37;19.07;;;7.00;99.90;;;;;;4989983;28;20249;-78
2022/03/03 08:22:13;;;;;;;27.13;21.40;;;7.20;99.90;;;;;;5013285;28;20219;-78
2022/03/03 08:24:43;;;;;;;27.27;21.50;;;7.10;99.90;;;;;;5006552;28;20212;-78
2022/03/03 08:27:12;;;;;;;23.80;20.07;;;7.20;99.90;;;;;;4986886;28;20203;-79
2022/03/03 08:29:38;;;;;;;23.27;17.37;;;7.20;99.90;;;;;;5004847;28;20709;-79
2022/03/03 08:32:11;;;;;;;21.90;16.23;;;7.30;99.90;;;;;;5004443;28;20299;-78
2022/03/03 08:34:43;;;;;;;26.40;20.53;;;7.50;99.90;;;;;;4995363;28;20725;-79
2022/03/03 08:37:18;;;;;;;30.03;20.33;;;7.60;99.90;;;;;;5001855;28;20200;-78
2022/03/03 08:39:46;;;;;;;24.00;19.60;;;7.40;99.90;;;;;;5012688;28;20204;-78
2022/03/03 08:42:16;;;;;;;25.13;19.90;;;7.50;99.90;;;;;;4986923;28;20229;-79
2022/03/03 08:44:44;;;;;;;26.30;20.67;;;7.60;99.90;;;;;;4995428;28;20212;-79
2022/03/03 08:47:15;;;;;;;24.20;20.70;;;7.50;99.90;;;;;;4993081;28;20200;-78
2022/03/03 08:49:45;;;;;;;25.93;19.37;;;7.70;99.90;;;;;;5012549;28;20196;-79
2022/03/03 08:52:12;;;;;;;23.23;18.90;;;7.90;99.90;;;;;;5012885;28;20216;-79
2022/03/03 08:54:39;;;;;;;24.80;19.57;;;8.10;99.90;;;;;;4995760;28;20584;-79
2022/03/03 08:57:06;;;;;;;22.30;18.73;;;8.20;99.90;;;;;;5012321;28;20189;-79
2022/03/03 08:59:33;;;;;;;25.27;20.30;;;8.30;99.90;;;;;;5013327;28;20219;-79
2022/03/03 09:02:00;;;;;;;23.80;19.20;;;8.50;99.90;;;;;;5005293;28;20232;-78
2022/03/03 09:04:27;;;;;;;24.00;19.53;;;8.80;99.90;;;;;;5005136;28;20220;-78
2022/03/03 09:06:55;;;;;;;23.83;19.47;;;8.80;99.90;;;;;;4987791;28;20198;-79
2022/03/03 09:09:22;;;;;;;21.60;18.00;;;9.00;99.90;;;;;;4991251;28;20926;-76
2022/03/03 09:11:49;;;;;;;22.70;19.23;;;9.00;99.90;;;;;;5006668;28;20275;-75
2022/03/03 09:14:16;;;;;;;23.77;19.20;;;9.10;99.90;;;;;;4986184;28;20197;-77
2022/03/03 09:16:43;;;;;;;23.27;19.57;;;9.10;99.90;;;;;;4985655;28;20200;-76
2022/03/03 09:19:10;;;;;;;23.77;18.87;;;8.80;99.90;;;;;;4986406;28;20555;-77
2022/03/03 09:21:37;;;;;;;21.50;18.40;;;9.10;99.90;;;;;;4986304;28;20247;-79
2022/03/03 09:24:06;;;;;;;22.93;19.27;;;9.00;99.90;;;;;;5003935;28;20279;-78
2022/03/03 09:26:34;;;;;;;26.93;20.30;;;9.30;99.90;;;;;;5007086;28;20197;-78
2022/03/03 09:29:01;;;;;;;24.07;19.97;;;9.40;99.90;;;;;;4983108;28;20202;-79
2022/03/03 09:31:28;;;;;;;22.67;19.37;;;9.40;99.90;;;;;;4981520;28;20635;-79
2022/03/03 09:33:54;;;;;;;23.97;19.43;;;9.50;99.90;;;;;;4994310;28;20264;-79
2022/03/03 09:36:21;;;;;;;23.63;20.93;;;9.80;99.90;;;;;;4983029;28;20291;-78
2022/03/03 09:38:49;;;;;;;25.37;22.50;;;10.10;99.90;;;;;;4989396;28;20645;-79
2022/03/03 09:41:17;;;;;;;26.67;22.77;;;10.30;99.90;;;;;;4990865;28;20197;-79
2022/03/03 09:43:44;;;;;;;23.70;19.00;;;10.60;99.90;;;;;;5005905;28;20214;-79
2022/03/03 09:46:11;;;;;;;25.90;20.20;;;10.70;99.90;;;;;;5003765;28;20193;-79
2022/03/03 09:48:38;;;;;;;24.40;21.80;;;10.30;99.90;;;;;;4985684;28;20254;-79
2022/03/03 09:51:05;;;;;;;23.73;17.53;;;10.00;99.90;;;;;;5003536;28;20469;-79
2022/03/03 09:53:33;;;;;;;23.30;18.60;;;10.20;99.90;;;;;;4990351;28;20193;-78
2022/03/03 09:56:00;;;;;;;23.13;19.33;;;10.30;99.90;;;;;;4999938;28;20746;-78
2022/03/03 09:58:28;;;;;;;23.93;19.33;;;10.30;99.90;;;;;;5008029;28;20189;-79
2022/03/03 10:00:57;;;;;;;22.67;19.20;;;10.20;99.90;;;;;;5008091;28;20206;-79
2022/03/03 10:03:32;;;;;;;25.73;21.13;;;10.10;99.90;;;;;;4986469;28;20333;-78
2022/03/03 10:06:00;;;;;;;24.17;20.03;;;9.90;99.90;;;;;;5012090;28;20200;-78
2022/03/03 10:08:28;;;;;;;21.37;17.27;;;9.70;99.90;;;;;;4985721;28;20192;-78
2022/03/03 10:10:57;;;;;;;25.10;22.40;;;9.70;99.90;;;;;;4986529;28;20209;-78
2022/03/03 10:13:25;;;;;;;24.03;20.87;;;9.50;99.90;;;;;;5017371;23;20354;-80
2022/03/03 10:15:56;;;;;;;24.07;21.47;;;9.50;99.90;;;;;;5016607;28;20204;-80
2022/03/03 10:18:24;;;;;;;28.07;22.93;;;9.40;99.90;;;;;;5009199;28;20198;-80
2022/03/03 10:20:53;;;;;;;24.43;20.73;;;9.50;99.90;;;;;;4998229;28;20227;-80
2022/03/03 10:23:24;;;;;;;22.33;19.90;;;9.40;99.90;;;;;;5013798;28;20225;-78
2022/03/03 10:25:53;;;;;;;24.33;20.07;;;9.30;99.90;;;;;;5012626;28;20193;-80
2022/03/03 10:28:21;;;;;;;26.07;20.17;;;9.20;99.90;;;;;;4990698;28;20670;-79
2022/03/03 10:30:51;;;;;;;22.00;17.30;;;9.00;99.90;;;;;;4993962;28;20203;-79
2022/03/03 10:33:22;;;;;;;23.57;19.17;;;9.00;99.90;;;;;;4999540;28;20569;-78
2022/03/03 10:36:08;;;;;;;22.83;19.67;;;8.90;99.90;;;;;;5004196;28;20190;-80
2022/03/03 10:38:46;;;;;;;23.47;19.40;;;8.80;99.90;;;;;;5002554;28;20207;-80
2022/03/03 10:41:30;;;;;;;24.40;19.87;;;8.80;99.90;;;;;;4992851;28;20256;-79
2022/03/03 10:43:58;;;;;;;23.13;18.90;;;8.70;99.90;;;;;;5021097;28;20204;-80
2022/03/03 10:46:25;;;;;;;23.37;19.83;;;8.60;99.90;;;;;;5012017;28;20200;-80
2022/03/03 10:48:53;;;;;;;26.30;20.27;;;8.50;99.90;;;;;;5013659;28;20193;-79
2022/03/03 10:51:24;;;;;;;30.67;21.80;;;8.60;99.90;;;;;;4998776;28;20686;-80
2022/03/03 10:53:55;;;;;;;21.60;19.00;;;8.60;99.90;;;;;;4991088;28;20212;-79
2022/03/03 10:56:22;;;;;;;19.53;17.00;;;8.60;99.90;;;;;;5016416;28;20208;-79
2022/03/03 10:58:52;;;;;;;27.23;17.17;;;8.60;99.90;;;;;;5013376;28;20479;-79
2022/03/03 11:01:22;;;;;;;22.40;17.03;;;8.60;99.90;;;;;;5011835;28;20196;-79
2022/03/03 11:03:53;;;;;;;21.50;16.90;;;8.60;99.90;;;;;;5012482;28;20216;-80
2022/03/03 11:06:24;;;;;;;21.07;16.67;;;8.50;99.90;;;;;;4994161;28;20244;-80
2022/03/03 11:08:52;;;;;;;24.40;18.07;;;8.50;99.90;;;;;;4993986;28;20196;-78
2022/03/03 11:11:20;;;;;;;20.00;16.57;;;8.40;99.90;;;;;;4994165;28;20216;-79
2022/03/03 11:13:49;;;;;;;22.97;17.50;;;8.50;99.90;;;;;;5013422;28;20221;-79
2022/03/03 11:16:17;;;;;;;22.73;15.63;;;8.50;99.90;;;;;;4999107;28;20293;-80
2022/03/03 11:18:44;;;;;;;21.07;16.20;;;8.50;99.90;;;;;;4990113;28;20212;-78
2022/03/03 11:21:12;;;;;;;20.13;15.80;;;8.40;99.90;;;;;;4998689;28;20246;-82
2022/03/03 11:23:46;;;;;;;21.50;14.70;;;8.50;99.90;;;;;;5012532;28;20359;-78
2022/03/03 11:26:22;;;;;;;20.33;15.47;;;8.60;99.90;;;;;;5010518;28;20220;-78
2022/03/03 11:29:01;;;;;;;21.37;15.93;;;8.70;99.90;;;;;;5010364;28;20657;-78
2022/03/03 11:31:31;;;;;;;20.87;16.17;;;8.70;99.90;;;;;;5009545;28;20722;-78
2022/03/03 11:34:20;;;;;;;26.20;17.43;;;8.70;99.90;;;;;;5014104;28;20200;-79
2022/03/03 11:36:48;;;;;;;22.87;17.07;;;8.60;99.90;;;;;;5012743;28;20306;-78
2022/03/03 11:39:41;;;;;;;22.93;16.47;;;8.60;99.90;;;;;;5012044;28;20201;-78
2022/03/03 11:42:19;;;;;;;27.07;17.57;;;8.60;99.90;;;;;;5006925;28;20690;-77
2022/03/03 11:44:46;;;;;;;23.97;16.43;;;8.60;99.90;;;;;;5005335;28;20215;-77
2022/03/03 11:47:25;;;;;;;25.07;16.33;;;8.60;99.90;;;;;;5011869;28;20235;-77
2022/03/03 11:50:07;;;;;;;22.00;15.87;;;8.70;99.90;;;;;;5014538;28;20199;-77
2022/03/03 11:52:34;;;;;;;21.07;15.13;;;8.70;99.90;;;;;;4998315;28;20681;-78
2022/03/03 11:55:27;;;;;;;19.27;15.00;;;8.80;99.90;;;;;;5008108;28;20192;-78
2022/03/03 11:57:54;;;;;;;23.47;15.80;;;8.80;99.90;;;;;;4992604;28;20683;-77
2022/03/03 12:00:21;;;;;;;20.70;14.47;;;8.90;99.90;;;;;;5007914;28;20247;-77
2022/03/03 12:03:00;;;;;;;23.13;16.03;;;8.90;99.90;;;;;;4991316;28;20267;-78
2022/03/03 12:05:31;;;;;;;18.07;13.90;;;8.90;99.90;;;;;;5004820;28;20204;-77
2022/03/03 12:07:59;;;;;;;19.07;14.00;;;9.00;99.90;;;;;;5008044;28;20209;-77
2022/03/03 12:10:27;;;;;;;18.40;14.30;;;9.00;99.90;;;;;;5007744;28;20196;-77
2022/03/03 12:13:27;;;;;;;20.40;15.27;;;9.10;99.90;;;;;;5008449;28;20299;-77
2022/03/03 12:16:23;;;;;;;21.97;14.87;;;9.30;99.90;;;;;;5003844;28;20189;-77
2022/03/03 12:19:05;;;;;;;20.10;14.50;;;9.20;99.90;;;;;;5010790;28;20204;-78
2022/03/03 12:21:34;;;;;;;23.53;14.70;;;9.20;99.90;;;;;;5003920;28;20201;-77
2022/03/03 12:24:31;;;;;;;21.60;14.83;;;9.30;99.90;;;;;;4989325;28;20205;-77
2022/03/03 12:27:11;;;;;;;25.77;15.87;;;9.30;99.90;;;;;;4981718;28;20213;-77
2022/03/03 12:29:51;;;;;;;21.27;14.90;;;9.30;99.90;;;;;;5001234;28;20677;-77
2022/03/03 12:32:41;;;;;;;21.67;15.23;;;9.40;99.90;;;;;;5009095;28;20724;-77
2022/03/03 12:35:12;;;;;;;24.37;15.23;;;9.40;99.90;;;;;;4984518;28;20260;-77
2022/03/03 12:37:45;;;;;;;23.77;15.67;;;9.50;99.90;;;;;;5004120;28;20255;-77
2022/03/03 12:40:14;;;;;;;22.10;14.83;;;9.50;99.90;;;;;;4997412;28;20239;-77